Time;durP1;ratioP1;P1;durP2;ratioP2;P2;SDS_P1;SDS_P2;PMS_P1;PMS_P2;Temp;Humidity;BMP_temperature;BMP_pressure;BME280_temperature;BME280_humidity;BME280_pressure;Samples;Min_cycle;Max_cycle;Signal;HPM_P1;HPM_P2
2022/12/14 00:00:55;;;;;;;21.50;9.40;;;-0.40;85.00;;;;;;5075864;28;20135;-80
2022/12/14 00:03:22;;;;;;;23.63;10.63;;;-0.40;84.80;;;;;;5092911;28;20122;-80
2022/12/14 00:05:48;;;;;;;27.37;10.80;;;-0.40;84.80;;;;;;5093934;28;20028;-79
2022/12/14 00:08:15;;;;;;;20.10;9.63;;;-0.40;84.80;;;;;;5093937;28;20051;-80
2022/12/14 00:10:41;;;;;;;20.30;9.93;;;-0.40;84.80;;;;;;5092758;28;20024;-80
2022/12/14 00:13:09;;;;;;;19.80;10.83;;;-0.40;84.70;;;;;;5092481;28;20111;-80
2022/12/14 00:15:36;;;;;;;21.70;9.63;;;-0.40;85.30;;;;;;5092625;28;20028;-80
2022/12/14 00:18:02;;;;;;;22.67;10.60;;;-0.40;84.70;;;;;;5093795;28;20047;-80
2022/12/14 00:20:28;;;;;;;21.47;9.93;;;-0.40;84.70;;;;;;5075822;28;20032;-80
2022/12/14 00:22:54;;;;;;;20.37;9.97;;;-0.40;84.60;;;;;;5109372;28;20031;-80
2022/12/14 00:25:21;;;;;;;22.47;10.63;;;-0.40;84.60;;;;;;5109291;28;20023;-80
2022/12/14 00:27:47;;;;;;;21.17;9.30;;;-0.40;84.60;;;;;;5092452;28;20020;-80
2022/12/14 00:30:15;;;;;;;18.50;8.80;;;-0.40;84.70;;;;;;5093629;28;20020;-80
2022/12/14 00:32:41;;;;;;;20.23;10.57;;;-0.40;84.70;;;;;;5109227;28;20024;-80
2022/12/14 00:35:09;;;;;;;21.47;10.93;;;-0.40;84.70;;;;;;5092626;28;20030;-80
2022/12/14 00:37:36;;;;;;;20.30;9.63;;;-0.40;84.70;;;;;;5092480;28;20020;-80
2022/12/14 00:40:03;;;;;;;19.93;10.20;;;-0.40;84.80;;;;;;5092286;28;20051;-80
2022/12/14 00:42:29;;;;;;;20.37;10.03;;;-0.40;84.80;;;;;;5093430;28;20024;-80
2022/12/14 00:44:54;;;;;;;23.13;11.27;;;-0.40;84.80;;;;;;5075355;28;20028;-80
2022/12/14 00:47:20;;;;;;;24.40;11.23;;;-0.40;84.80;;;;;;5092191;28;20111;-80
2022/12/14 00:49:45;;;;;;;22.73;10.97;;;-0.40;84.80;;;;;;5092168;28;20111;-80
2022/12/14 00:52:11;;;;;;;20.77;10.73;;;-0.40;84.80;;;;;;5092132;28;20024;-80
2022/12/14 00:54:37;;;;;;;22.53;11.57;;;-0.40;84.90;;;;;;5092201;28;20524;-80
2022/12/14 00:57:02;;;;;;;19.70;9.83;;;-0.40;84.90;;;;;;5093122;28;20082;-80
2022/12/14 00:59:28;;;;;;;21.87;10.47;;;-0.40;84.90;;;;;;5108996;28;20020;-80
2022/12/14 01:01:53;;;;;;;20.20;9.47;;;-0.40;84.80;;;;;;5075139;28;20020;-80
2022/12/14 01:04:21;;;;;;;23.40;10.90;;;-0.40;84.90;;;;;;5092106;28;20050;-80
2022/12/14 01:06:48;;;;;;;23.53;11.10;;;-0.40;84.90;;;;;;5096842;28;20050;-80
2022/12/14 01:09:15;;;;;;;21.37;10.20;;;-0.40;84.90;;;;;;5079409;28;20521;-80
2022/12/14 01:11:42;;;;;;;18.37;8.87;;;-0.40;84.90;;;;;;5096469;28;20111;-80
2022/12/14 01:14:10;;;;;;;23.13;10.97;;;-0.40;84.80;;;;;;5096256;28;20081;-80
2022/12/14 01:16:36;;;;;;;22.13;10.13;;;-0.40;84.90;;;;;;5096249;28;20070;-80
2022/12/14 01:19:02;;;;;;;18.67;9.47;;;-0.40;84.70;;;;;;5095837;28;20274;-81
2022/12/14 01:21:28;;;;;;;22.83;10.80;;;-0.40;84.70;;;;;;5097252;28;20020;-80
2022/12/14 01:24:00;;;;;;;20.90;10.27;;;-0.40;84.70;;;;;;5095824;28;20031;-79
2022/12/14 01:26:27;;;;;;;22.77;10.60;;;-0.50;84.60;;;;;;5096926;28;20049;-80
2022/12/14 01:28:56;;;;;;;19.43;10.57;;;-0.50;84.60;;;;;;5078974;28;20024;-79
2022/12/14 01:31:25;;;;;;;21.33;9.60;;;-0.50;84.60;;;;;;5095670;28;20071;-80
2022/12/14 01:33:50;;;;;;;21.80;10.77;;;-0.50;84.70;;;;;;5112760;28;20020;-80
2022/12/14 01:36:22;;;;;;;19.17;9.80;;;-0.50;84.70;;;;;;5096898;28;20024;-80
2022/12/14 01:38:53;;;;;;;22.13;11.07;;;-0.50;84.70;;;;;;5112922;28;20058;-80
2022/12/14 01:41:25;;;;;;;22.47;10.13;;;-0.50;84.70;;;;;;5096810;28;20281;-80
2022/12/14 01:43:58;;;;;;;18.53;8.70;;;-0.50;84.70;;;;;;5095334;28;20476;-80
2022/12/14 01:46:39;;;;;;;16.67;6.93;;;-0.50;84.70;;;;;;5096563;28;20024;-80
2022/12/14 01:49:28;;;;;;;18.03;8.83;;;-0.50;84.60;;;;;;5096488;28;20557;-79
2022/12/14 01:52:07;;;;;;;18.97;8.83;;;-0.50;84.60;;;;;;5112246;28;20052;-79
2022/12/14 01:54:36;;;;;;;19.53;9.83;;;-0.50;84.60;;;;;;5112232;28;20031;-80
2022/12/14 01:57:02;;;;;;;19.53;8.83;;;-0.50;84.40;;;;;;5096223;28;20036;-80
2022/12/14 01:59:33;;;;;;;17.93;9.20;;;-0.50;84.40;;;;;;5095104;28;20484;-80
2022/12/14 02:02:02;;;;;;;21.03;9.83;;;-0.50;84.40;;;;;;5111984;28;20016;-79
2022/12/14 02:04:28;;;;;;;19.37;9.10;;;-0.50;84.40;;;;;;5112044;28;20125;-80
2022/12/14 02:06:54;;;;;;;18.90;8.97;;;-0.50;84.40;;;;;;5095051;28;20165;-80
2022/12/14 02:09:27;;;;;;;17.87;8.77;;;-0.50;84.20;;;;;;5112060;28;20511;-80
2022/12/14 02:12:25;;;;;;;18.33;8.20;;;-0.50;84.10;;;;;;5096140;28;20023;-80
2022/12/14 02:14:51;;;;;;;17.93;9.17;;;-0.50;84.10;;;;;;5111739;28;20016;-80
2022/12/14 02:17:19;;;;;;;18.37;8.40;;;-0.50;84.00;;;;;;5110679;28;20060;-80
2022/12/14 02:19:45;;;;;;;18.50;9.03;;;-0.50;83.90;;;;;;5096034;28;20024;-79
2022/12/14 02:22:44;;;;;;;18.40;9.17;;;-0.40;83.70;;;;;;5094705;28;20020;-80
2022/12/14 02:25:15;;;;;;;20.53;9.53;;;-0.50;83.60;;;;;;5095883;28;20282;-80
2022/12/14 02:28:02;;;;;;;18.53;9.10;;;-0.50;83.50;;;;;;5111552;28;20032;-80
2022/12/14 02:30:33;;;;;;;19.43;9.63;;;-0.50;83.40;;;;;;5111602;28;20040;-80
2022/12/14 02:33:27;;;;;;;19.50;8.93;;;-0.50;83.50;;;;;;5094665;28;20812;-80
2022/12/14 02:36:03;;;;;;;17.97;8.43;;;-0.60;83.50;;;;;;5095705;28;20353;-80
2022/12/14 02:39:02;;;;;;;16.73;7.47;;;-0.60;83.50;;;;;;5095741;28;20028;-79
2022/12/14 02:41:45;;;;;;;19.43;9.37;;;-0.60;83.50;;;;;;5095665;28;20274;-80
2022/12/14 02:44:30;;;;;;;15.57;8.03;;;-0.70;83.50;;;;;;5094256;28;20302;-79
2022/12/14 02:47:07;;;;;;;17.05;8.15;;;-0.60;83.60;;;;;;5095625;28;20274;-80
2022/12/14 02:50:05;;;;;;;17.13;8.90;;;-0.60;83.60;;;;;;5111100;28;20035;-79
2022/12/14 02:52:36;;;;;;;18.43;8.17;;;-0.70;83.40;;;;;;5083185;28;20444;-79
2022/12/14 02:55:09;;;;;;;18.07;9.03;;;-0.60;83.40;;;;;;5111111;28;20289;-79
2022/12/14 02:57:56;;;;;;;19.37;8.10;;;-0.60;83.40;;;;;;5110825;28;20294;-79
2022/12/14 03:00:23;;;;;;;19.37;9.33;;;-0.70;83.30;;;;;;5111038;28;20050;-80
2022/12/14 03:02:51;;;;;;;19.87;8.70;;;-0.70;83.30;;;;;;5110981;27;20331;-80
2022/12/14 03:05:17;;;;;;;18.67;7.60;;;-0.70;83.30;;;;;;5094048;28;20028;-80
2022/12/14 03:07:56;;;;;;;19.70;8.00;;;-0.70;83.40;;;;;;5110780;28;20615;-79
2022/12/14 03:10:43;;;;;;;18.17;7.80;;;-0.70;83.40;;;;;;5110876;28;20070;-80
2022/12/14 03:13:31;;;;;;;19.17;8.20;;;-0.70;83.40;;;;;;5095179;28;20020;-79
2022/12/14 03:16:06;;;;;;;17.30;8.27;;;-0.70;83.20;;;;;;5093792;28;20285;-80
2022/12/14 03:18:41;;;;;;;17.77;7.60;;;-0.70;83.20;;;;;;5110606;28;20286;-80
2022/12/14 03:21:11;;;;;;;17.27;8.10;;;-0.80;83.20;;;;;;5110714;28;20383;-80
2022/12/14 03:23:40;;;;;;;15.27;8.73;;;-0.80;83.10;;;;;;5094950;28;20490;-79
2022/12/14 03:26:24;;;;;;;17.70;7.57;;;-0.80;83.20;;;;;;5094681;28;20796;-79
2022/12/14 03:29:13;;;;;;;16.00;7.13;;;-0.80;83.20;;;;;;5110200;28;20039;-80
2022/12/14 03:31:47;;;;;;;14.57;7.20;;;-0.80;83.20;;;;;;5110772;28;20277;-79
2022/12/14 03:34:14;;;;;;;;;;;-0.80;83.10;;;;;;5095007;28;20765;-79
2022/12/14 03:36:55;;;;;;;16.80;6.90;;;-0.80;83.10;;;;;;5093287;28;19904;-79
2022/12/14 03:39:30;;;;;;;19.03;7.03;;;-0.80;83.10;;;;;;5110371;28;20270;-79
2022/12/14 03:42:18;;;;;;;15.43;7.23;;;-0.90;83.00;;;;;;5109976;28;20281;-79
2022/12/14 03:45:05;;;;;;;18.50;7.93;;;-0.90;82.90;;;;;;5094432;28;20778;-79
2022/12/14 03:47:52;;;;;;;16.43;7.43;;;-0.90;83.00;;;;;;5110077;28;20278;-79
2022/12/14 03:50:24;;;;;;;14.83;6.37;;;-0.90;83.00;;;;;;5110076;28;20027;-79
2022/12/14 03:52:52;;;;;;;16.80;7.17;;;-0.90;83.00;;;;;;5109873;28;20625;-79
2022/12/14 03:55:48;;;;;;;18.73;7.07;;;-1.00;83.00;;;;;;5110011;28;20020;-80
2022/12/14 03:58:45;;;;;;;18.83;7.43;;;-1.00;83.00;;;;;;5109690;28;20315;-80
2022/12/14 04:01:31;;;;;;;15.93;6.73;;;-1.00;83.00;;;;;;5109689;28;20320;-80
2022/12/14 04:04:20;;;;;;;15.80;7.07;;;-1.00;83.00;;;;;;5093990;28;20278;-81
2022/12/14 04:06:57;;;;;;;15.50;6.67;;;-1.00;83.00;;;;;;5109798;28;20365;-80
2022/12/14 04:09:52;;;;;;;15.20;6.40;;;-1.10;83.00;;;;;;5094207;28;20274;-80
2022/12/14 04:21:31;;;;;;;17.23;7.47;;;-1.10;82.90;;;;;;5094458;28;20626;-80
2022/12/14 04:26:59;;;;;;;17.67;7.30;;;-1.10;82.90;;;;;;5094108;28;20649;-80
2022/12/14 04:32:39;;;;;;;14.97;6.00;;;-1.20;82.80;;;;;;5094015;28;20062;-79
2022/12/14 04:35:24;;;;;;;17.30;6.57;;;-1.10;82.90;;;;;;5109361;28;20274;-80
2022/12/14 04:37:56;;;;;;;15.83;6.60;;;-1.10;82.80;;;;;;5091937;28;20292;-79
2022/12/14 04:40:50;;;;;;;12.17;5.60;;;-1.20;82.80;;;;;;5092889;28;20274;-80
2022/12/14 04:43:20;;;;;;;11.60;4.65;;;-1.20;82.90;;;;;;5092600;28;20281;-79
2022/12/14 04:45:47;;;;;;;15.90;6.97;;;-1.20;82.80;;;;;;5109388;28;20020;-79
2022/12/14 04:48:43;;;;;;;16.87;7.30;;;-1.20;82.80;;;;;;5109225;28;20460;-78
2022/12/14 04:51:16;;;;;;;13.07;5.70;;;-1.20;82.80;;;;;;5092874;28;20278;-79
2022/12/14 04:53:45;;;;;;;12.23;5.80;;;-1.20;82.80;;;;;;5109271;28;20269;-79
2022/12/14 04:56:23;;;;;;;15.27;6.90;;;-1.30;83.40;;;;;;5113372;28;20269;-79
2022/12/14 04:58:49;;;;;;;15.57;6.43;;;-1.30;83.50;;;;;;5111393;28;20301;-79
2022/12/14 05:01:40;;;;;;;15.60;7.03;;;-1.30;82.90;;;;;;5095195;28;20384;-79
2022/12/14 05:04:27;;;;;;;15.50;7.33;;;-1.30;83.00;;;;;;5093736;28;20035;-78
2022/12/14 05:07:03;;;;;;;15.77;6.97;;;-1.30;83.00;;;;;;5094460;28;20286;-77
2022/12/14 05:09:39;;;;;;;16.03;6.40;;;-1.30;83.00;;;;;;5095385;28;20274;-77
2022/12/14 05:12:49;;;;;;;17.50;6.90;;;-1.30;83.10;;;;;;5094062;28;20311;-79
2022/12/14 05:15:20;;;;;;;16.57;6.57;;;-1.30;83.10;;;;;;5092283;28;20274;-79
2022/12/14 05:17:46;;;;;;;14.10;5.97;;;-1.30;83.10;;;;;;5109745;28;20278;-80
2022/12/14 05:20:17;;;;;;;15.07;6.20;;;-1.30;83.10;;;;;;5092217;28;20338;-78
2022/12/14 05:22:43;;;;;;;12.30;5.70;;;-1.20;83.10;;;;;;5092526;28;20024;-79
2022/12/14 05:25:09;;;;;;;16.30;8.20;;;-1.20;83.20;;;;;;5091530;28;20294;-79
2022/12/14 05:27:35;;;;;;;15.40;6.60;;;-1.30;83.10;;;;;;5074473;28;20084;-79
2022/12/14 05:30:00;;;;;;;14.40;6.30;;;-1.30;83.10;;;;;;5091778;28;20380;-78
2022/12/14 05:32:27;;;;;;;15.73;6.30;;;-1.30;83.10;;;;;;5073746;28;20105;-78
2022/12/14 05:34:53;;;;;;;16.20;7.27;;;-1.30;83.10;;;;;;5090144;28;20063;-78
2022/12/14 05:37:19;;;;;;;13.27;5.73;;;-1.40;83.10;;;;;;5090412;28;20383;-78
2022/12/14 05:39:44;;;;;;;15.40;6.83;;;-1.30;83.20;;;;;;5074764;28;20392;-78
2022/12/14 05:42:10;;;;;;;14.93;7.13;;;-1.30;83.20;;;;;;5091483;28;20070;-77
2022/12/14 05:44:36;;;;;;;14.57;6.50;;;-1.40;83.20;;;;;;5091523;28;20024;-78
2022/12/14 05:47:01;;;;;;;16.07;6.63;;;-1.40;83.20;;;;;;5074785;28;20039;-78
2022/12/14 05:49:27;;;;;;;14.77;5.87;;;-1.30;83.30;;;;;;5074987;28;20081;-77
2022/12/14 05:51:52;;;;;;;15.10;6.43;;;-1.30;83.30;;;;;;5076497;28;20476;-78
2022/12/14 05:54:18;;;;;;;14.47;6.63;;;-1.40;83.30;;;;;;5096439;28;20028;-79
2022/12/14 05:56:44;;;;;;;16.80;6.43;;;-1.30;83.40;;;;;;5078041;28;20028;-78
2022/12/14 05:59:14;;;;;;;12.90;5.30;;;-1.30;83.30;;;;;;5095224;28;20032;-79
2022/12/14 06:01:43;;;;;;;14.23;6.87;;;-1.30;83.30;;;;;;5078949;28;20032;-79
2022/12/14 06:04:14;;;;;;;14.60;6.20;;;-1.30;83.10;;;;;;5095382;28;20282;-79
2022/12/14 06:06:40;;;;;;;13.27;5.77;;;-1.30;83.10;;;;;;5096485;28;20317;-79
2022/12/14 06:09:08;;;;;;;16.10;6.47;;;-1.30;83.10;;;;;;5095128;28;20361;-79
2022/12/14 06:11:37;;;;;;;13.97;6.47;;;-1.30;83.10;;;;;;5094993;28;20051;-77
2022/12/14 06:14:03;;;;;;;16.70;6.77;;;-1.40;83.10;;;;;;5094823;28;20274;-78
2022/12/14 06:16:28;;;;;;;17.03;6.33;;;-1.40;83.00;;;;;;5094733;28;20292;-78
2022/12/14 06:18:56;;;;;;;13.57;5.97;;;-1.40;83.00;;;;;;5094877;28;20043;-79
2022/12/14 06:21:24;;;;;;;14.30;6.57;;;-1.40;83.00;;;;;;5095008;28;20430;-79
2022/12/14 06:23:50;;;;;;;13.83;5.97;;;-1.30;83.00;;;;;;5094698;28;20374;-79
2022/12/14 06:26:16;;;;;;;12.97;5.47;;;-1.30;83.00;;;;;;5094690;28;20369;-78
2022/12/14 06:28:42;;;;;;;13.40;5.33;;;-1.50;82.90;;;;;;5077590;28;20077;-79
2022/12/14 06:31:14;;;;;;;12.43;5.53;;;-1.50;82.80;;;;;;5095852;28;20020;-80
2022/12/14 06:33:40;;;;;;;14.23;5.83;;;-1.40;82.80;;;;;;5094472;28;20032;-79
2022/12/14 06:36:06;;;;;;;13.50;6.20;;;-1.50;82.70;;;;;;5094606;28;20318;-80
2022/12/14 06:38:33;;;;;;;13.40;5.27;;;-1.50;82.70;;;;;;5094233;28;20051;-80
2022/12/14 06:40:59;;;;;;;12.00;5.37;;;-1.50;82.60;;;;;;5077835;28;20457;-79
2022/12/14 06:43:25;;;;;;;14.13;6.53;;;-1.60;82.50;;;;;;5094406;28;20373;-80
2022/12/14 06:45:51;;;;;;;13.93;6.30;;;-1.60;82.50;;;;;;5077291;28;20071;-80
2022/12/14 06:48:17;;;;;;;13.37;5.93;;;-1.60;82.40;;;;;;5077353;28;20702;-79
2022/12/14 06:50:42;;;;;;;13.77;5.90;;;-1.70;82.40;;;;;;5094200;28;20161;-80
2022/12/14 06:53:12;;;;;;;12.47;5.30;;;-1.70;82.50;;;;;;5095489;28;20028;-79
2022/12/14 06:55:37;;;;;;;13.73;5.80;;;-1.70;83.10;;;;;;5094054;28;20024;-79
2022/12/14 06:58:03;;;;;;;12.57;5.30;;;-1.70;82.50;;;;;;5093799;28;20300;-79
2022/12/14 07:00:29;;;;;;;12.47;5.20;;;-1.80;82.50;;;;;;5077122;28;20388;-79
2022/12/14 07:02:54;;;;;;;11.60;5.40;;;-1.80;82.50;;;;;;5076520;28;20039;-79
2022/12/14 07:05:20;;;;;;;12.97;4.93;;;-1.80;82.50;;;;;;5094056;28;20047;-79
2022/12/14 07:07:46;;;;;;;17.30;5.50;;;-1.90;82.50;;;;;;5093933;28;20609;-79
2022/12/14 07:10:12;;;;;;;11.97;5.10;;;-1.90;82.50;;;;;;5093369;28;20016;-78
2022/12/14 07:12:37;;;;;;;11.00;4.87;;;-1.90;82.60;;;;;;5093382;28;20047;-78
2022/12/14 07:15:04;;;;;;;15.17;5.50;;;-2.00;82.50;;;;;;5093365;28;20301;-78
2022/12/14 07:17:29;;;;;;;14.60;5.23;;;-2.00;82.50;;;;;;5076127;28;20082;-79
2022/12/14 07:19:55;;;;;;;10.30;4.17;;;-2.00;82.60;;;;;;5076112;28;20790;-77
2022/12/14 07:22:21;;;;;;;13.43;5.40;;;-2.00;82.70;;;;;;5094193;28;20080;-78
2022/12/14 07:24:46;;;;;;;12.40;5.33;;;-2.00;82.70;;;;;;5092520;28;20028;-78
2022/12/14 07:27:12;;;;;;;14.90;6.43;;;-2.10;82.70;;;;;;5094170;28;20027;-78
2022/12/14 07:29:38;;;;;;;13.27;4.77;;;-2.20;82.80;;;;;;5092828;28;20024;-79
2022/12/14 07:32:03;;;;;;;12.83;4.73;;;-2.20;82.90;;;;;;5092664;28;20047;-78
2022/12/14 07:34:29;;;;;;;14.30;5.73;;;-2.20;82.90;;;;;;5093991;28;20039;-79
2022/12/14 07:36:55;;;;;;;14.53;5.53;;;-2.20;82.90;;;;;;5092236;28;20103;-79
2022/12/14 07:39:21;;;;;;;15.57;5.97;;;-2.30;82.80;;;;;;5075823;28;20021;-78
2022/12/14 07:41:49;;;;;;;13.50;5.83;;;-2.30;82.80;;;;;;5092688;28;20158;-79
2022/12/14 07:44:15;;;;;;;13.00;4.93;;;-2.30;82.90;;;;;;5092908;28;20285;-78
2022/12/14 07:46:40;;;;;;;12.90;4.97;;;-2.30;82.90;;;;;;5075078;28;20681;-79
2022/12/14 07:49:07;;;;;;;13.97;5.57;;;-2.30;82.90;;;;;;5091966;28;20035;-79
2022/12/14 07:51:35;;;;;;;10.47;4.93;;;-2.30;82.80;;;;;;5109909;28;20024;-79
2022/12/14 07:54:03;;;;;;;11.63;4.67;;;-2.40;82.70;;;;;;5094249;28;20274;-79
2022/12/14 07:56:31;;;;;;;12.40;4.77;;;-2.40;82.80;;;;;;5109579;28;20312;-79
2022/12/14 07:58:58;;;;;;;12.30;4.67;;;-2.50;82.80;;;;;;5094320;28;20292;-79
2022/12/14 08:01:29;;;;;;;13.00;5.13;;;-2.50;82.80;;;;;;5109821;28;20271;-79
2022/12/14 08:03:57;;;;;;;12.80;4.80;;;-2.60;82.80;;;;;;5094077;28;20270;-79
2022/12/14 08:06:25;;;;;;;12.17;5.50;;;-2.60;82.80;;;;;;5109499;28;20740;-79
2022/12/14 08:08:51;;;;;;;15.57;6.07;;;-2.60;82.80;;;;;;5109560;28;20278;-79
2022/12/14 08:11:17;;;;;;;12.90;5.17;;;-2.70;82.70;;;;;;5092727;28;20807;-78
2022/12/14 08:13:43;;;;;;;13.67;5.53;;;-2.70;82.70;;;;;;5091990;28;20044;-79
2022/12/14 08:16:14;;;;;;;13.17;5.80;;;-2.70;82.70;;;;;;5092955;28;20309;-79
2022/12/14 08:18:41;;;;;;;14.30;5.40;;;-2.60;82.90;;;;;;5093690;28;20077;-79
2022/12/14 08:21:08;;;;;;;14.43;5.43;;;-2.80;82.80;;;;;;5093932;28;20277;-79
2022/12/14 08:23:35;;;;;;;12.77;5.33;;;-2.80;82.90;;;;;;5093596;28;20679;-78
2022/12/14 08:26:01;;;;;;;14.30;5.70;;;-2.80;82.90;;;;;;5109407;28;20446;-78
2022/12/14 08:28:29;;;;;;;16.17;5.47;;;-2.80;83.00;;;;;;5109371;28;20273;-79
2022/12/14 08:30:56;;;;;;;16.47;6.57;;;-2.90;83.00;;;;;;5093584;28;20721;-79
2022/12/14 08:33:22;;;;;;;13.57;5.73;;;-2.90;83.10;;;;;;5092110;28;20684;-79
2022/12/14 08:35:48;;;;;;;12.67;5.67;;;-2.90;83.20;;;;;;5091923;28;20305;-79
2022/12/14 08:38:14;;;;;;;15.40;5.40;;;-2.90;83.20;;;;;;5092394;28;20785;-79
2022/12/14 08:40:41;;;;;;;15.20;5.97;;;-3.00;83.20;;;;;;5092307;28;20032;-79
2022/12/14 08:43:07;;;;;;;17.10;6.77;;;-3.00;83.30;;;;;;5092670;28;20024;-79
2022/12/14 08:45:34;;;;;;;15.43;5.93;;;-3.00;83.40;;;;;;5093247;28;20773;-79
2022/12/14 08:48:00;;;;;;;17.07;5.50;;;-3.00;83.50;;;;;;5108996;28;20261;-79
2022/12/14 08:50:28;;;;;;;18.30;6.67;;;-3.00;83.50;;;;;;5075444;28;20278;-78
2022/12/14 08:52:54;;;;;;;16.63;6.73;;;-3.00;83.60;;;;;;5093295;28;20833;-76
2022/12/14 08:55:20;;;;;;;17.30;6.10;;;-3.00;83.70;;;;;;5093260;28;20278;-79
2022/12/14 08:57:46;;;;;;;20.10;7.57;;;-3.00;83.80;;;;;;5092563;28;20305;-79
2022/12/14 09:00:13;;;;;;;17.37;7.00;;;-3.00;84.00;;;;;;5092554;28;20697;-79
2022/12/14 09:02:38;;;;;;;15.43;6.77;;;-3.00;84.10;;;;;;5109116;28;20270;-80
2022/12/14 09:05:05;;;;;;;15.37;6.93;;;-3.00;84.40;;;;;;5109222;28;20286;-80
2022/12/14 09:07:31;;;;;;;22.00;8.67;;;-2.90;84.50;;;;;;5108669;28;20024;-79
2022/12/14 09:09:57;;;;;;;24.13;9.47;;;-2.90;84.60;;;;;;5093543;28;20289;-79
2022/12/14 09:12:23;;;;;;;20.23;8.57;;;-2.90;84.60;;;;;;5108841;28;20027;-80
2022/12/14 09:14:49;;;;;;;18.70;8.03;;;-2.90;84.60;;;;;;5093270;28;20270;-79
2022/12/14 09:17:16;;;;;;;23.17;9.53;;;-2.80;84.70;;;;;;5108843;28;20287;-79
2022/12/14 09:19:42;;;;;;;18.57;8.40;;;-2.70;85.00;;;;;;5108623;28;20270;-79
2022/12/14 09:22:08;;;;;;;20.43;8.37;;;-2.60;85.20;;;;;;5091877;28;20266;-79
2022/12/14 09:24:34;;;;;;;16.90;7.60;;;-2.50;85.60;;;;;;5092812;28;20454;-79
2022/12/14 09:27:01;;;;;;;17.80;7.93;;;-2.30;85.90;;;;;;5093900;28;20274;-79
2022/12/14 09:29:27;;;;;;;19.30;8.17;;;-2.00;86.00;;;;;;5112996;28;20379;-79
2022/12/14 09:31:53;;;;;;;16.47;8.17;;;-1.60;86.20;;;;;;5096927;28;20274;-80
2022/12/14 09:34:19;;;;;;;17.30;8.43;;;-1.30;86.60;;;;;;5112512;28;20382;-79
2022/12/14 09:36:45;;;;;;;17.07;7.63;;;-0.70;87.70;;;;;;5095453;28;20804;-76
2022/12/14 09:39:14;;;;;;;12.90;6.30;;;0.00;88.90;;;;;;5095591;28;20058;-80
2022/12/14 09:41:40;;;;;;;13.90;6.07;;;0.70;90.20;;;;;;5113877;28;20042;-80
2022/12/14 09:44:24;;;;;;;13.80;6.77;;;1.50;90.70;;;;;;5112379;28;20036;-81
2022/12/14 09:46:55;;;;;;;12.82;5.88;;;2.40;90.90;;;;;;5104140;28;20034;-79
2022/12/14 09:49:29;;;;;;;13.40;5.97;;;3.30;91.50;;;;;;5096792;28;20028;-80
2022/12/14 09:52:00;;;;;;;13.80;6.77;;;4.10;91.50;;;;;;5091330;28;20023;-79
2022/12/14 09:54:28;;;;;;;14.27;6.40;;;4.80;91.90;;;;;;5082213;28;20016;-79
2022/12/14 09:56:59;;;;;;;12.95;6.50;;;5.60;92.00;;;;;;5089043;28;20407;-79
2022/12/14 09:59:28;;;;;;;14.63;6.82;;;6.20;91.40;;;;;;5087714;28;20380;-80
2022/12/14 10:02:17;;;;;;;11.68;6.20;;;7.00;91.00;;;;;;5081781;28;20020;-79
2022/12/14 10:05:10;;;;;;;12.57;7.18;;;7.80;89.70;;;;;;5088119;28;20050;-79
2022/12/14 10:08:07;;;;;;;11.07;6.53;;;8.40;88.40;;;;;;5086284;28;20021;-79
2022/12/14 10:10:56;;;;;;;12.10;6.30;;;9.00;85.40;;;;;;5088567;28;20044;-80
2022/12/14 10:13:36;;;;;;;11.05;6.05;;;9.30;84.50;;;;;;5085259;28;20032;-79
2022/12/14 10:16:28;;;;;;;11.13;5.93;;;9.90;81.40;;;;;;5095871;28;20024;-80
2022/12/14 10:19:08;;;;;;;11.50;6.13;;;10.30;79.30;;;;;;5094078;28;20028;-80
2022/12/14 10:22:06;;;;;;;10.32;5.82;;;10.50;76.60;;;;;;5094624;28;20068;-80
2022/12/14 10:24:41;;;;;;;11.18;5.93;;;10.60;74.20;;;;;;5095833;28;20020;-80
2022/12/14 10:27:10;;;;;;;13.38;7.20;;;10.70;74.00;;;;;;5094607;28;20035;-78
2022/12/14 10:29:38;;;;;;;11.50;6.60;;;10.80;71.20;;;;;;5091784;28;20020;-78
2022/12/14 10:32:31;;;;;;;14.82;7.88;;;10.80;69.30;;;;;;5101976;28;20024;-78
2022/12/14 10:34:58;;;;;;;13.63;7.50;;;10.80;67.30;;;;;;5084698;28;20468;-78
2022/12/14 10:37:30;;;;;;;12.18;6.90;;;10.60;66.60;;;;;;5093772;28;20025;-78
2022/12/14 10:40:12;;;;;;;11.98;6.47;;;10.30;65.10;;;;;;5092525;28;20035;-78
2022/12/14 10:42:48;;;;;;;12.90;6.85;;;10.20;63.80;;;;;;5082335;28;20083;-78
2022/12/14 10:45:31;;;;;;;11.48;6.53;;;10.00;63.20;;;;;;5087181;28;20031;-78
2022/12/14 10:48:28;;;;;;;13.77;7.40;;;9.90;62.70;;;;;;5098488;28;20103;-78
2022/12/14 10:51:11;;;;;;;15.57;6.80;;;10.00;62.10;;;;;;5086432;28;20410;-78
2022/12/14 10:53:49;;;;;;;12.65;7.32;;;10.40;61.70;;;;;;5091190;28;20111;-77
2022/12/14 10:56:23;;;;;;;13.45;6.90;;;10.90;61.70;;;;;;5091861;28;20093;-77
2022/12/14 10:59:24;;;;;;;10.65;5.95;;;11.30;61.40;;;;;;5094365;28;20101;-78
2022/12/14 11:01:52;;;;;;;13.45;6.40;;;11.80;60.10;;;;;;5027108;28;20032;-78
2022/12/14 11:04:28;;;;;;;11.10;6.10;;;12.00;60.30;;;;;;5089514;28;20095;-78
2022/12/14 11:06:55;;;;;;;15.50;6.90;;;12.10;59.30;;;;;;5094998;28;20493;-79
2022/12/14 11:09:23;;;;;;;11.57;6.53;;;12.10;59.00;;;;;;5093608;28;20039;-77
2022/12/14 11:11:56;;;;;;;14.43;6.88;;;12.00;58.40;;;;;;5090389;28;20503;-78
2022/12/14 11:14:26;;;;;;;13.98;6.72;;;11.90;56.90;;;;;;5086728;28;20070;-79
2022/12/14 11:16:54;;;;;;;11.60;7.03;;;11.90;56.30;;;;;;5089911;28;20081;-79
2022/12/14 11:19:25;;;;;;;10.15;5.85;;;11.90;55.50;;;;;;5091062;28;20044;-79
2022/12/14 11:22:09;;;;;;;12.02;6.93;;;11.80;54.30;;;;;;5094505;28;20046;-78
2022/12/14 11:24:44;;;;;;;15.32;6.95;;;11.60;53.90;;;;;;5087950;28;20032;-78
2022/12/14 11:27:13;;;;;;;10.70;6.40;;;11.60;53.80;;;;;;5094832;28;20031;-78
2022/12/14 11:29:43;;;;;;;11.70;6.43;;;11.50;52.90;;;;;;5076226;28;20464;-77
2022/12/14 11:32:17;;;;;;;13.23;5.95;;;11.30;52.10;;;;;;5075099;28;20511;-77
2022/12/14 11:34:51;;;;;;;12.73;7.07;;;11.10;51.80;;;;;;5094626;28;20389;-78
2022/12/14 11:37:23;;;;;;;14.75;6.82;;;10.80;51.50;;;;;;5077636;28;20062;-77
2022/12/14 11:39:55;;;;;;;13.55;7.25;;;10.50;51.70;;;;;;5092023;28;20025;-78
2022/12/14 11:42:21;;;;;;;11.77;6.35;;;10.40;51.90;;;;;;5094421;28;20028;-78
2022/12/14 11:44:48;;;;;;;11.73;6.63;;;10.20;51.80;;;;;;5093161;28;20028;-78
2022/12/14 11:47:15;;;;;;;13.98;7.35;;;10.30;52.10;;;;;;5093217;28;20055;-78
2022/12/14 11:49:42;;;;;;;13.68;8.05;;;10.50;51.80;;;;;;5094192;28;20122;-79
2022/12/14 11:52:24;;;;;;;12.05;6.70;;;10.90;51.50;;;;;;5094251;28;20016;-78
2022/12/14 11:54:55;;;;;;;12.55;6.75;;;11.30;50.90;;;;;;5109995;28;20028;-78
2022/12/14 11:57:30;;;;;;;13.93;7.10;;;11.60;50.40;;;;;;5093872;28;21332;-79
2022/12/14 11:59:59;;;;;;;12.90;6.85;;;11.60;50.00;;;;;;5110155;28;20020;-80
2022/12/14 12:02:29;;;;;;;11.88;5.85;;;11.80;50.00;;;;;;5110083;28;20573;-80
2022/12/14 12:05:27;;;;;;;13.73;7.60;;;12.10;50.10;;;;;;5109589;28;20055;-80
2022/12/14 12:07:58;;;;;;;12.07;6.63;;;12.40;49.70;;;;;;5092099;28;20032;-80
2022/12/14 12:10:25;;;;;;;13.10;6.72;;;12.60;49.50;;;;;;5093691;28;20020;-79
2022/12/14 12:13:03;;;;;;;12.65;7.00;;;12.90;50.00;;;;;;5109661;28;20517;-80
2022/12/14 12:15:37;;;;;;;11.98;7.20;;;13.30;50.30;;;;;;5109505;28;20031;-79
2022/12/14 12:18:04;;;;;;;;;;;13.80;49.80;;;;;;5092761;28;20443;-80
2022/12/14 12:20:30;;;;;;;12.57;7.53;;;14.30;49.40;;;;;;5093663;28;19912;-80
2022/12/14 12:23:04;;;;;;;10.48;6.63;;;14.60;48.60;;;;;;5093781;28;20081;-80
2022/12/14 12:25:32;;;;;;;10.63;6.60;;;14.70;47.70;;;;;;5109279;28;20067;-80
2022/12/14 12:28:04;;;;;;;10.00;6.68;;;15.20;47.80;;;;;;5092827;28;20016;-80
2022/12/14 12:30:35;;;;;;;11.10;6.32;;;15.50;47.30;;;;;;5094373;28;20016;-80
2022/12/14 12:33:30;;;;;;;10.88;6.32;;;15.80;46.80;;;;;;5092466;28;20039;-80
2022/12/14 12:36:03;;;;;;;10.00;6.80;;;16.10;45.20;;;;;;5093641;28;20027;-80
2022/12/14 12:38:50;;;;;;;10.68;6.60;;;16.20;45.40;;;;;;5109334;28;20069;-80
2022/12/14 12:41:19;;;;;;;13.48;8.18;;;16.50;45.30;;;;;;5092221;28;20032;-79
2022/12/14 12:43:53;;;;;;;14.38;7.32;;;16.70;44.30;;;;;;5109183;28;20016;-79
2022/12/14 12:46:31;;;;;;;13.35;8.05;;;16.90;44.30;;;;;;5093480;28;20023;-80
2022/12/14 12:49:03;;;;;;;11.57;7.43;;;17.10;44.10;;;;;;5109195;28;20023;-80
2022/12/14 12:51:53;;;;;;;10.27;7.07;;;17.40;44.00;;;;;;5109171;28;20024;-80
2022/12/14 12:54:32;;;;;;;11.93;7.43;;;17.70;43.20;;;;;;5109028;28;20431;-80
2022/12/14 12:57:01;;;;;;;11.57;7.38;;;17.90;43.20;;;;;;5108880;28;20031;-80
2022/12/14 12:59:30;;;;;;;11.70;7.85;;;18.20;42.80;;;;;;5091499;28;20492;-80
2022/12/14 13:02:10;;;;;;;13.40;7.40;;;18.30;41.80;;;;;;5091734;28;20373;-80
2022/12/14 13:04:39;;;;;;;13.43;8.38;;;18.40;41.40;;;;;;5092641;28;20529;-80
2022/12/14 13:07:15;;;;;;;11.40;8.48;;;18.50;41.00;;;;;;5107655;28;20024;-80
2022/12/14 13:09:47;;;;;;;11.95;8.27;;;18.70;40.20;;;;;;5108731;28;20028;-80
2022/12/14 13:12:26;;;;;;;11.35;7.38;;;18.80;40.20;;;;;;5091962;28;20017;-80
2022/12/14 13:14:53;;;;;;;12.35;8.20;;;18.80;39.60;;;;;;5108776;28;20463;-80
2022/12/14 13:17:44;;;;;;;13.68;8.38;;;18.90;39.20;;;;;;5093024;28;20027;-80